Time;durP1;ratioP1;P1;durP2;ratioP2;P2;SDS_P1;SDS_P2;PMS_P1;PMS_P2;Temp;Humidity;BMP_temperature;BMP_pressure;BME280_temperature;BME280_humidity;BME280_pressure;Samples;Min_cycle;Max_cycle;Signal;HPM_P1;HPM_P2
2022/06/27 00:01:57;;;;;;;8.85;7.97;;;25.50;77.90;;;;;;5052638;28;20025;-68
2022/06/27 00:04:22;;;;;;;8.30;7.32;;;25.50;78.20;;;;;;5053497;28;20048;-69
2022/06/27 00:06:48;;;;;;;8.38;7.63;;;25.40;78.30;;;;;;5044549;28;20044;-68
2022/06/27 00:09:13;;;;;;;8.77;7.93;;;25.40;79.00;;;;;;5033045;28;20041;-68
2022/06/27 00:11:39;;;;;;;8.55;7.68;;;25.40;78.70;;;;;;5045593;28;20060;-68
2022/06/27 00:14:05;;;;;;;10.30;8.45;;;25.30;78.90;;;;;;5051244;28;20059;-68
2022/06/27 00:16:30;;;;;;;8.38;7.57;;;25.30;79.30;;;;;;5052299;28;20036;-68
2022/06/27 00:18:56;;;;;;;10.18;8.10;;;25.30;79.30;;;;;;5052729;28;20028;-67
2022/06/27 00:21:22;;;;;;;8.18;7.45;;;25.30;79.60;;;;;;5051595;28;20017;-68
2022/06/27 00:23:47;;;;;;;9.35;8.35;;;25.20;79.60;;;;;;5052440;28;20061;-69
2022/06/27 00:26:13;;;;;;;8.57;7.78;;;25.20;79.70;;;;;;5037626;28;20025;-68
2022/06/27 00:28:38;;;;;;;7.95;7.25;;;25.20;79.90;;;;;;5052077;28;20045;-68
2022/06/27 00:31:04;;;;;;;9.05;8.15;;;25.20;80.10;;;;;;5051870;28;20064;-68
2022/06/27 00:33:29;;;;;;;9.40;8.50;;;25.20;80.20;;;;;;5052801;28;20033;-68
2022/06/27 00:35:55;;;;;;;9.27;8.40;;;25.20;80.40;;;;;;5051727;28;20032;-68
2022/06/27 00:38:20;;;;;;;8.55;7.72;;;25.10;80.40;;;;;;5052341;28;20028;-68
2022/06/27 00:40:46;;;;;;;9.18;8.20;;;25.10;80.60;;;;;;5040346;28;20033;-68
2022/06/27 00:43:12;;;;;;;9.60;8.52;;;25.10;80.70;;;;;;5052416;28;20029;-68
2022/06/27 00:45:37;;;;;;;8.68;7.80;;;25.10;81.00;;;;;;5051120;28;20495;-69
2022/06/27 00:48:03;;;;;;;9.65;8.57;;;25.10;81.10;;;;;;5050078;28;20091;-68
2022/06/27 00:50:29;;;;;;;9.18;8.30;;;25.00;81.30;;;;;;5051375;28;20025;-68
2022/06/27 00:52:55;;;;;;;9.55;8.65;;;25.00;81.50;;;;;;5049345;28;20032;-68
2022/06/27 00:55:20;;;;;;;9.10;8.18;;;25.00;81.80;;;;;;5054193;28;20472;-69
2022/06/27 00:57:46;;;;;;;10.73;8.60;;;25.00;81.80;;;;;;5045381;28;20033;-69
2022/06/27 01:00:12;;;;;;;9.85;8.57;;;24.90;82.00;;;;;;5044564;28;20457;-68
2022/06/27 01:02:38;;;;;;;8.68;7.78;;;24.90;81.90;;;;;;5050996;28;20025;-68
2022/06/27 01:05:05;;;;;;;9.07;8.20;;;24.90;82.30;;;;;;5052230;28;20095;-68
2022/06/27 01:07:30;;;;;;;9.68;8.68;;;24.90;82.50;;;;;;5050726;28;20552;-68
2022/06/27 01:09:57;;;;;;;10.93;8.93;;;24.90;82.70;;;;;;5051308;28;20024;-69
2022/06/27 01:12:23;;;;;;;9.73;8.73;;;24.90;82.80;;;;;;5038863;28;20377;-69
2022/06/27 01:14:50;;;;;;;9.48;8.55;;;24.90;83.00;;;;;;5056648;28;20055;-68
2022/06/27 01:17:17;;;;;;;10.25;8.07;;;24.80;83.10;;;;;;5053144;28;20037;-68
2022/06/27 01:19:42;;;;;;;9.38;8.48;;;24.90;83.30;;;;;;5050859;28;20484;-68
2022/06/27 01:22:09;;;;;;;10.55;8.88;;;24.80;83.40;;;;;;5041582;28;20112;-68
2022/06/27 01:24:35;;;;;;;9.98;9.05;;;24.80;83.70;;;;;;5031414;28;20492;-68
2022/06/27 01:27:01;;;;;;;9.98;9.07;;;24.70;83.90;;;;;;5044599;28;20033;-68
2022/06/27 01:29:27;;;;;;;11.38;9.02;;;24.80;84.00;;;;;;5050675;28;20829;-68
2022/06/27 01:31:53;;;;;;;9.90;8.95;;;24.80;84.20;;;;;;5048894;28;20032;-68
2022/06/27 01:34:20;;;;;;;10.50;9.20;;;24.80;84.30;;;;;;5034375;28;20064;-69
2022/06/27 01:36:46;;;;;;;9.15;8.27;;;24.70;84.70;;;;;;5040731;28;20035;-69
2022/06/27 01:39:14;;;;;;;11.32;8.15;;;24.70;84.70;;;;;;5049543;28;20028;-69
2022/06/27 01:41:51;;;;;;;10.95;9.45;;;24.70;85.30;;;;;;5050363;28;20423;-69
2022/06/27 01:44:18;;;;;;;9.73;8.73;;;24.70;85.00;;;;;;5044966;28;20028;-69
2022/06/27 01:46:45;;;;;;;11.85;8.98;;;24.60;85.10;;;;;;5041368;28;20032;-69
2022/06/27 01:49:13;;;;;;;10.75;9.75;;;24.60;85.20;;;;;;5044874;28;20048;-70
2022/06/27 01:51:40;;;;;;;9.73;8.82;;;24.60;85.40;;;;;;5038036;28;20029;-68
2022/06/27 01:54:10;;;;;;;12.63;9.70;;;24.60;85.50;;;;;;5047791;28;20101;-69
2022/06/27 01:56:36;;;;;;;10.73;9.63;;;24.60;85.50;;;;;;5048108;28;20446;-68
2022/06/27 01:59:01;;;;;;;10.55;9.35;;;24.60;85.60;;;;;;5047919;28;20032;-68
2022/06/27 02:01:28;;;;;;;10.38;9.30;;;24.50;85.70;;;;;;5030778;28;20025;-69
2022/06/27 02:03:55;;;;;;;10.23;9.15;;;24.50;85.70;;;;;;5048193;28;20104;-68
2022/06/27 02:06:21;;;;;;;10.77;9.45;;;24.50;85.80;;;;;;5049986;28;20565;-68
2022/06/27 02:08:49;;;;;;;10.05;9.05;;;24.50;86.00;;;;;;5003598;28;1100015;-69
2022/06/27 02:11:15;;;;;;;11.32;9.50;;;24.50;86.10;;;;;;5031652;28;20034;-68
2022/06/27 02:13:42;;;;;;;10.02;8.88;;;24.50;86.20;;;;;;5047230;28;20014;-69
2022/06/27 02:16:11;;;;;;;11.02;9.93;;;24.50;86.50;;;;;;5051038;28;20042;-68
2022/06/27 02:18:37;;;;;;;10.75;9.35;;;24.40;86.60;;;;;;5050341;28;20037;-68
2022/06/27 02:21:03;;;;;;;11.20;9.75;;;24.50;86.90;;;;;;5050416;28;20075;-69
2022/06/27 02:23:30;;;;;;;10.82;9.82;;;24.40;86.90;;;;;;5050471;28;20444;-69
2022/06/27 02:25:56;;;;;;;11.38;9.60;;;24.40;87.00;;;;;;5051147;28;20040;-69
2022/06/27 02:28:25;;;;;;;12.00;10.07;;;24.40;87.20;;;;;;5050336;28;20033;-69
2022/06/27 02:30:51;;;;;;;11.88;10.68;;;24.30;87.10;;;;;;5050754;28;20094;-67
2022/06/27 02:33:17;;;;;;;11.68;10.50;;;24.40;87.30;;;;;;5050416;28;20104;-68
2022/06/27 02:35:44;;;;;;;9.65;8.68;;;24.30;87.30;;;;;;5051187;28;20037;-69
2022/06/27 02:38:11;;;;;;;11.45;10.35;;;24.30;87.50;;;;;;5041312;28;20025;-69
2022/06/27 02:40:42;;;;;;;10.52;9.32;;;24.20;87.60;;;;;;5031120;28;20485;-68
2022/06/27 02:43:12;;;;;;;11.13;10.07;;;24.20;88.10;;;;;;5045772;28;20025;-69
2022/06/27 02:45:38;;;;;;;11.63;10.52;;;24.10;88.10;;;;;;5070937;28;20021;-69
2022/06/27 02:48:07;;;;;;;10.23;9.30;;;24.10;88.40;;;;;;5057941;28;20072;-68
2022/06/27 02:50:37;;;;;;;11.98;10.88;;;24.10;88.60;;;;;;5050541;28;20032;-69
2022/06/27 02:53:09;;;;;;;11.52;9.93;;;24.10;88.70;;;;;;5046646;28;20094;-69
2022/06/27 02:55:39;;;;;;;12.13;10.90;;;24.10;89.00;;;;;;5050886;28;20021;-69
2022/06/27 02:58:26;;;;;;;10.48;9.48;;;24.00;89.00;;;;;;5049873;28;20035;-69
2022/06/27 03:00:55;;;;;;;10.65;9.55;;;24.00;89.20;;;;;;5050837;28;20025;-69
2022/06/27 03:03:23;;;;;;;11.85;10.75;;;24.00;89.40;;;;;;5047986;28;20044;-69
2022/06/27 03:06:04;;;;;;;11.48;10.38;;;24.10;89.60;;;;;;5050539;28;20091;-70
2022/06/27 03:08:44;;;;;;;11.75;10.55;;;24.00;89.80;;;;;;5051614;28;20103;-69
2022/06/27 03:11:13;;;;;;;13.82;10.95;;;24.00;90.00;;;;;;5051141;28;20033;-69
2022/06/27 03:13:38;;;;;;;12.60;11.40;;;24.00;90.10;;;;;;5050606;28;20048;-69
2022/06/27 03:16:04;;;;;;;11.55;10.48;;;24.00;90.20;;;;;;5035228;28;20021;-69
2022/06/27 03:18:30;;;;;;;12.38;11.27;;;24.00;90.20;;;;;;5049270;28;20403;-69
2022/06/27 03:20:56;;;;;;;12.52;11.27;;;24.00;90.30;;;;;;5053772;28;20032;-69
2022/06/27 03:23:21;;;;;;;12.15;10.77;;;24.00;90.30;;;;;;5053305;28;20504;-69
2022/06/27 03:25:48;;;;;;;12.70;11.40;;;23.90;90.40;;;;;;5048375;28;20029;-69
2022/06/27 03:28:13;;;;;;;12.35;11.07;;;23.90;90.50;;;;;;5046478;28;20044;-69
2022/06/27 03:30:39;;;;;;;12.75;11.50;;;23.90;90.60;;;;;;5053449;28;20468;-68
2022/06/27 03:33:05;;;;;;;12.90;11.68;;;24.00;90.70;;;;;;5052391;28;20029;-68
2022/06/27 03:35:31;;;;;;;12.98;11.88;;;23.90;90.80;;;;;;5051801;28;20028;-69
2022/06/27 03:37:56;;;;;;;13.48;12.10;;;23.90;90.80;;;;;;5042416;28;20435;-69
2022/06/27 03:40:22;;;;;;;13.07;11.55;;;23.90;90.90;;;;;;5052726;28;20117;-69
2022/06/27 03:42:47;;;;;;;13.63;12.18;;;24.00;90.90;;;;;;5052836;28;20033;-71
2022/06/27 03:45:13;;;;;;;13.10;11.80;;;24.00;91.00;;;;;;5052139;28;20039;-70
2022/06/27 03:47:50;;;;;;;12.75;11.65;;;24.00;91.00;;;;;;5053073;28;20041;-68
2022/06/27 03:50:17;;;;;;;11.85;10.75;;;24.00;91.00;;;;;;5049520;28;20032;-68
2022/06/27 03:52:42;;;;;;;11.82;10.73;;;24.00;91.10;;;;;;5041495;28;20032;-68
2022/06/27 03:55:09;;;;;;;12.13;11.00;;;24.00;91.10;;;;;;5050029;28;20051;-69
2022/06/27 03:57:45;;;;;;;12.98;11.80;;;24.00;91.20;;;;;;5042809;28;20021;-68
2022/06/27 04:00:10;;;;;;;12.75;11.48;;;24.10;91.30;;;;;;5050040;28;20036;-69
2022/06/27 04:02:36;;;;;;;14.32;12.63;;;24.10;91.30;;;;;;5049825;28;20029;-68
2022/06/27 04:05:05;;;;;;;13.13;11.95;;;24.10;91.30;;;;;;5053055;28;20024;-67
2022/06/27 04:07:30;;;;;;;13.77;12.10;;;24.10;91.40;;;;;;5050830;28;20048;-68
2022/06/27 04:09:57;;;;;;;13.75;12.32;;;24.10;91.50;;;;;;5053056;28;20477;-68
2022/06/27 04:12:23;;;;;;;12.90;11.68;;;24.10;91.50;;;;;;5052385;28;20021;-67
2022/06/27 04:14:49;;;;;;;13.93;12.60;;;24.20;91.50;;;;;;5052508;28;20036;-68
2022/06/27 04:17:14;;;;;;;13.02;11.63;;;24.20;91.50;;;;;;5049707;28;20029;-68
2022/06/27 04:19:40;;;;;;;12.38;11.13;;;24.20;91.50;;;;;;5052210;28;20029;-68
2022/06/27 04:22:06;;;;;;;14.65;13.15;;;24.20;91.60;;;;;;5047414;28;20078;-68
2022/06/27 04:24:31;;;;;;;12.63;11.43;;;24.20;91.60;;;;;;5033173;28;20458;-68
2022/06/27 04:26:57;;;;;;;13.52;12.23;;;24.20;91.60;;;;;;5037294;28;20029;-67
2022/06/27 04:29:23;;;;;;;13.43;12.10;;;24.20;91.60;;;;;;5052775;28;20041;-67
2022/06/27 04:31:49;;;;;;;13.70;12.38;;;24.30;91.80;;;;;;5048585;28;20040;-68
2022/06/27 04:34:15;;;;;;;15.93;13.90;;;24.20;91.70;;;;;;5042353;28;20025;-67
2022/06/27 04:36:41;;;;;;;13.57;11.82;;;24.30;91.70;;;;;;5037194;28;20025;-66
2022/06/27 04:39:07;;;;;;;14.52;13.02;;;24.30;91.70;;;;;;5047186;28;20025;-70
2022/06/27 04:41:34;;;;;;;12.80;11.50;;;24.30;91.60;;;;;;5051521;28;20443;-70
2022/06/27 04:44:00;;;;;;;13.13;11.82;;;24.30;91.60;;;;;;5050859;28;20103;-68
2022/06/27 04:46:25;;;;;;;15.45;13.85;;;24.40;91.70;;;;;;5046587;28;20133;-69
2022/06/27 04:48:51;;;;;;;12.82;11.63;;;24.50;91.60;;;;;;5037843;28;20116;-68
2022/06/27 04:51:17;;;;;;;12.32;11.23;;;24.50;91.60;;;;;;5038549;28;20079;-68
2022/06/27 04:53:44;;;;;;;13.57;12.27;;;24.50;91.70;;;;;;5050501;28;20110;-68
2022/06/27 04:56:11;;;;;;;13.40;12.18;;;24.50;91.60;;;;;;5053223;28;20025;-68
2022/06/27 04:58:37;;;;;;;13.48;11.90;;;24.60;91.60;;;;;;5046812;28;20028;-68
2022/06/27 05:01:03;;;;;;;16.63;12.48;;;24.60;91.60;;;;;;5049666;28;20368;-69
2022/06/27 05:03:29;;;;;;;13.50;12.27;;;24.60;91.90;;;;;;5045464;28;20040;-69
2022/06/27 05:05:55;;;;;;;13.40;12.20;;;24.70;91.60;;;;;;5047037;28;20029;-70
2022/06/27 05:08:20;;;;;;;14.00;12.73;;;24.70;91.60;;;;;;5045602;28;20057;-70
2022/06/27 05:10:47;;;;;;;12.57;11.48;;;24.80;91.60;;;;;;5048604;28;20021;-69
2022/06/27 05:13:13;;;;;;;13.45;12.05;;;24.80;91.90;;;;;;5044357;28;20445;-69
2022/06/27 05:15:39;;;;;;;15.65;12.45;;;24.90;91.60;;;;;;5050114;28;20126;-69
2022/06/27 05:18:04;;;;;;;17.42;12.07;;;24.90;91.60;;;;;;5044467;28;20421;-70
2022/06/27 05:20:30;;;;;;;13.88;12.57;;;24.90;91.60;;;;;;5046232;28;20037;-69
2022/06/27 05:22:57;;;;;;;13.30;12.00;;;25.00;91.50;;;;;;5048098;28;20095;-69
2022/06/27 05:25:23;;;;;;;13.43;12.10;;;25.10;91.60;;;;;;5042807;28;20036;-69
2022/06/27 05:27:49;;;;;;;13.27;11.93;;;25.10;91.50;;;;;;5049547;28;20033;-69
2022/06/27 05:30:15;;;;;;;13.70;11.93;;;25.20;91.80;;;;;;5050286;28;20060;-69
2022/06/27 05:32:41;;;;;;;13.95;12.32;;;25.20;91.40;;;;;;5050914;28;20025;-69
2022/06/27 05:35:08;;;;;;;13.40;12.10;;;25.30;91.40;;;;;;5043598;28;20030;-70
2022/06/27 05:37:38;;;;;;;14.00;12.32;;;25.40;91.40;;;;;;5039036;28;20037;-69
2022/06/27 05:40:06;;;;;;;13.25;10.95;;;25.40;91.20;;;;;;5046132;28;20045;-69
2022/06/27 05:42:33;;;;;;;12.50;11.30;;;25.50;91.30;;;;;;5040138;28;20059;-69
2022/06/27 05:44:59;;;;;;;13.77;11.52;;;25.50;91.10;;;;;;5046435;28;20029;-69
2022/06/27 05:47:25;;;;;;;13.18;11.40;;;25.70;91.30;;;;;;5037431;28;20091;-69
2022/06/27 05:49:51;;;;;;;12.27;10.80;;;25.70;91.00;;;;;;5036521;28;20065;-69
2022/06/27 05:52:17;;;;;;;11.43;10.25;;;25.70;91.00;;;;;;5036467;28;20443;-70
2022/06/27 05:54:44;;;;;;;12.05;10.85;;;25.80;90.70;;;;;;5051339;28;20021;-69
2022/06/27 05:57:11;;;;;;;13.98;11.05;;;25.90;90.90;;;;;;5049646;28;20021;-70
2022/06/27 05:59:37;;;;;;;11.57;10.27;;;26.00;90.60;;;;;;5051906;28;20503;-69
2022/06/27 06:02:03;;;;;;;11.45;10.30;;;26.00;90.50;;;;;;5050875;28;20116;-69
2022/06/27 06:04:29;;;;;;;11.18;10.18;;;26.10;90.30;;;;;;5051152;28;20032;-69
2022/06/27 06:06:55;;;;;;;11.18;10.07;;;26.20;90.20;;;;;;5052052;28;20549;-68
2022/06/27 06:09:21;;;;;;;11.38;10.30;;;26.20;90.40;;;;;;5051992;28;20059;-69
2022/06/27 06:11:48;;;;;;;10.38;9.48;;;26.30;90.10;;;;;;5050583;28;20022;-68
2022/06/27 06:14:16;;;;;;;11.27;10.18;;;26.40;90.20;;;;;;5035903;28;20025;-68
2022/06/27 06:16:42;;;;;;;11.25;10.15;;;26.50;90.20;;;;;;5050185;28;20032;-69
2022/06/27 06:19:09;;;;;;;11.70;10.60;;;26.50;90.20;;;;;;5048190;28;20033;-69
2022/06/27 06:21:35;;;;;;;13.50;10.60;;;26.60;90.10;;;;;;5050506;28;20171;-69
2022/06/27 06:24:01;;;;;;;14.40;11.32;;;26.60;89.60;;;;;;5050268;28;20036;-69
2022/06/27 06:26:27;;;;;;;11.30;10.20;;;26.70;89.40;;;;;;5050913;28;20163;-69
2022/06/27 06:28:53;;;;;;;11.43;10.35;;;26.80;89.10;;;;;;5050189;28;20116;-69
2022/06/27 06:31:22;;;;;;;11.55;10.48;;;26.80;88.70;;;;;;5051020;28;20626;-69
2022/06/27 06:33:50;;;;;;;11.38;10.30;;;26.90;89.10;;;;;;5050248;28;20041;-69
2022/06/27 06:36:18;;;;;;;11.38;10.38;;;27.00;88.50;;;;;;5050775;28;20033;-70
2022/06/27 06:38:44;;;;;;;11.45;10.35;;;27.00;88.10;;;;;;5047328;28;20029;-69
2022/06/27 06:41:09;;;;;;;11.18;10.15;;;27.10;88.00;;;;;;5049345;28;20033;-69
2022/06/27 06:43:35;;;;;;;13.48;10.98;;;27.10;87.80;;;;;;5048076;28;20098;-69
2022/06/27 06:46:01;;;;;;;12.40;10.38;;;27.20;87.70;;;;;;5052991;28;20112;-69
2022/06/27 06:48:27;;;;;;;12.30;10.32;;;27.20;87.50;;;;;;5053342;28;20041;-69
2022/06/27 06:50:54;;;;;;;11.65;10.45;;;27.30;87.40;;;;;;5054060;28;20025;-69
2022/06/27 06:53:20;;;;;;;11.13;10.13;;;27.30;87.20;;;;;;5052721;28;20032;-69
2022/06/27 06:55:45;;;;;;;11.02;9.90;;;27.40;87.00;;;;;;5056767;28;20104;-69
2022/06/27 06:58:11;;;;;;;14.68;9.65;;;27.50;86.80;;;;;;5053083;28;20119;-70
2022/06/27 07:00:38;;;;;;;11.25;9.40;;;27.60;86.20;;;;;;5053764;28;20025;-68
2022/06/27 07:03:04;;;;;;;9.27;8.32;;;27.60;85.70;;;;;;5052984;28;20120;-68
2022/06/27 07:05:31;;;;;;;9.65;8.35;;;27.70;85.50;;;;;;5053778;28;20112;-68
2022/06/27 07:07:58;;;;;;;10.25;9.25;;;27.80;85.10;;;;;;5052546;28;20059;-68
2022/06/27 07:10:25;;;;;;;8.75;7.93;;;27.90;84.80;;;;;;5053970;28;20032;-69
2022/06/27 07:12:51;;;;;;;9.05;8.15;;;28.00;84.60;;;;;;5053074;28;20591;-70
2022/06/27 07:15:18;;;;;;;8.32;7.55;;;28.10;84.10;;;;;;5052481;28;20029;-68
2022/06/27 07:17:46;;;;;;;7.82;7.03;;;28.20;83.30;;;;;;5053689;28;20025;-69
2022/06/27 07:20:13;;;;;;;8.95;8.15;;;28.20;82.90;;;;;;5053290;28;20476;-69
2022/06/27 07:22:40;;;;;;;8.27;7.40;;;28.30;82.40;;;;;;5052773;28;20467;-68
2022/06/27 07:25:07;;;;;;;7.75;7.05;;;28.40;82.50;;;;;;5053152;28;20510;-69
2022/06/27 07:27:34;;;;;;;8.38;6.82;;;28.50;82.10;;;;;;5055844;28;20051;-69
2022/06/27 07:30:04;;;;;;;7.85;6.45;;;28.60;81.60;;;;;;5051223;28;20384;-69
2022/06/27 07:32:31;;;;;;;8.50;6.75;;;28.70;81.00;;;;;;5055078;28;20040;-68
2022/06/27 07:34:58;;;;;;;7.88;6.20;;;28.80;80.70;;;;;;5041823;28;20053;-70
2022/06/27 07:37:25;;;;;;;15.45;7.70;;;28.80;80.50;;;;;;5067064;28;20037;-68
2022/06/27 07:39:51;;;;;;;8.15;6.38;;;29.00;80.40;;;;;;5052079;28;20085;-69
2022/06/27 07:42:16;;;;;;;7.10;5.93;;;29.00;79.50;;;;;;5050534;28;20044;-68
2022/06/27 07:44:42;;;;;;;8.23;5.55;;;29.10;79.10;;;;;;5051141;28;20133;-68
2022/06/27 07:47:08;;;;;;;6.90;6.20;;;29.20;78.90;;;;;;5064866;28;20025;-68
2022/06/27 07:49:34;;;;;;;6.05;5.45;;;29.30;78.50;;;;;;5052600;28;20057;-68
2022/06/27 07:52:00;;;;;;;6.00;5.40;;;29.40;77.70;;;;;;5052660;28;20411;-69
2022/06/27 07:54:27;;;;;;;8.48;5.25;;;29.50;76.80;;;;;;5053190;28;20480;-68
2022/06/27 07:56:53;;;;;;;7.80;5.35;;;29.60;75.90;;;;;;5051825;28;20033;-68
2022/06/27 07:59:19;;;;;;;5.85;4.90;;;29.60;75.60;;;;;;5052423;28;20121;-68
2022/06/27 08:01:45;;;;;;;6.15;5.55;;;29.70;75.40;;;;;;5050106;28;20115;-68
2022/06/27 08:04:12;;;;;;;15.85;5.93;;;29.80;74.70;;;;;;5052994;28;20040;-67
2022/06/27 08:06:37;;;;;;;5.35;4.85;;;29.90;75.00;;;;;;5053603;28;20035;-67
2022/06/27 08:09:05;;;;;;;6.10;5.40;;;30.00;74.20;;;;;;5054873;28;20045;-68
2022/06/27 08:11:33;;;;;;;6.60;4.93;;;30.10;73.20;;;;;;5050039;28;20068;-68
2022/06/27 08:14:03;;;;;;;5.47;4.97;;;30.10;72.90;;;;;;5052795;28;20037;-67
2022/06/27 08:16:30;;;;;;;6.15;3.92;;;30.20;72.00;;;;;;5053690;28;20025;-68
2022/06/27 08:18:56;;;;;;;4.53;4.03;;;30.20;70.60;;;;;;5053531;28;20025;-68
2022/06/27 08:21:25;;;;;;;5.28;3.97;;;30.30;70.00;;;;;;5053036;28;20122;-68
2022/06/27 08:23:53;;;;;;;4.60;3.92;;;30.40;70.00;;;;;;5051844;28;20021;-67
2022/06/27 08:26:21;;;;;;;4.05;3.65;;;30.40;69.70;;;;;;5053627;28;20276;-68
2022/06/27 08:28:50;;;;;;;4.30;3.78;;;30.50;69.50;;;;;;5048398;28;20045;-67
2022/06/27 08:31:16;;;;;;;6.63;4.20;;;30.50;69.40;;;;;;5052726;28;20024;-68
2022/06/27 08:33:46;;;;;;;5.97;4.20;;;30.60;69.10;;;;;;5051302;28;20537;-67
2022/06/27 08:36:13;;;;;;;5.82;4.22;;;30.70;69.20;;;;;;5052638;28;20029;-68
2022/06/27 08:38:42;;;;;;;5.35;4.85;;;30.70;69.50;;;;;;5039907;28;20042;-68
2022/06/27 08:41:09;;;;;;;6.85;4.38;;;30.80;69.30;;;;;;5052404;28;20029;-68
2022/06/27 08:43:35;;;;;;;5.78;4.05;;;30.90;69.50;;;;;;5051806;28;20048;-68
2022/06/27 08:46:01;;;;;;;6.45;5.10;;;30.90;69.60;;;;;;5043346;28;20548;-68
2022/06/27 08:48:28;;;;;;;5.90;4.80;;;31.00;69.40;;;;;;5032704;28;20057;-68
2022/06/27 08:50:56;;;;;;;5.20;4.53;;;31.10;69.20;;;;;;5032563;28;20026;-68
2022/06/27 08:53:25;;;;;;;4.93;4.15;;;31.20;69.20;;;;;;5034582;28;20111;-69
2022/06/27 08:55:51;;;;;;;4.10;3.70;;;31.20;68.60;;;;;;5052130;28;20436;-68
2022/06/27 08:58:19;;;;;;;7.72;3.72;;;31.30;68.00;;;;;;5051263;28;20029;-68
2022/06/27 09:00:46;;;;;;;6.53;3.60;;;31.30;67.10;;;;;;5050843;28;20357;-68
2022/06/27 09:03:17;;;;;;;6.03;3.50;;;31.40;66.90;;;;;;5047700;28;20419;-68
2022/06/27 09:05:44;;;;;;;11.48;4.05;;;31.50;65.90;;;;;;5051216;28;20032;-68
2022/06/27 09:08:10;;;;;;;7.28;4.03;;;31.50;65.40;;;;;;5045226;28;20056;-68
2022/06/27 09:10:39;;;;;;;5.60;3.63;;;31.60;65.30;;;;;;5031833;28;20047;-69
2022/06/27 09:13:13;;;;;;;7.45;3.97;;;31.70;65.50;;;;;;5039096;28;20032;-68
2022/06/27 09:15:44;;;;;;;4.30;3.70;;;31.70;65.40;;;;;;5052035;28;20083;-69
2022/06/27 09:18:10;;;;;;;5.25;3.67;;;31.70;65.10;;;;;;5049885;28;20495;-69
2022/06/27 09:20:52;;;;;;;3.80;3.10;;;31.80;65.20;;;;;;5051359;28;20557;-69
2022/06/27 09:23:35;;;;;;;4.68;3.67;;;31.80;64.20;;;;;;5049679;28;20119;-69
2022/06/27 09:26:12;;;;;;;4.37;3.97;;;31.90;64.40;;;;;;5051875;28;20032;-69
2022/06/27 09:28:57;;;;;;;4.43;3.85;;;31.90;64.80;;;;;;5051081;28;20048;-69
2022/06/27 09:31:30;;;;;;;6.55;3.42;;;31.90;64.70;;;;;;5049348;28;20086;-69
2022/06/27 09:34:23;;;;;;;4.97;4.13;;;32.00;63.80;;;;;;5049980;28;20041;-69
2022/06/27 09:36:52;;;;;;;4.75;3.67;;;32.00;64.40;;;;;;5049825;28;20115;-69
2022/06/27 09:39:28;;;;;;;5.50;3.95;;;32.10;63.20;;;;;;5064214;28;20025;-69
2022/06/27 09:42:13;;;;;;;5.97;4.40;;;32.10;63.30;;;;;;5044956;28;20037;-69
2022/06/27 09:44:44;;;;;;;4.65;3.63;;;32.20;62.80;;;;;;5050823;28;20033;-69
2022/06/27 09:47:18;;;;;;;5.45;3.53;;;32.30;62.40;;;;;;5053853;28;20036;-69
2022/06/27 09:49:49;;;;;;;;;;;32.30;62.30;;;;;;5051015;28;20048;-69
2022/06/27 09:52:17;;;;;;;3.35;3.05;;;32.30;63.10;;;;;;5045978;28;19909;-69
2022/06/27 09:54:44;;;;;;;5.32;3.45;;;32.30;61.70;;;;;;5050372;28;20021;-69
2022/06/27 09:57:11;;;;;;;5.97;3.90;;;32.40;61.50;;;;;;5048860;28;20032;-68
2022/06/27 09:59:38;;;;;;;4.85;3.65;;;32.40;61.00;;;;;;5049072;28;20033;-68
2022/06/27 10:02:05;;;;;;;4.45;3.05;;;32.40;60.50;;;;;;5035212;28;20025;-68
2022/06/27 10:04:32;;;;;;;3.40;2.90;;;32.50;59.50;;;;;;5049952;28;20111;-69
2022/06/27 10:07:01;;;;;;;3.92;2.90;;;32.50;59.40;;;;;;5049083;28;20036;-69
2022/06/27 10:09:29;;;;;;;3.85;2.67;;;32.60;59.00;;;;;;5049934;28;20110;-69
2022/06/27 10:12:24;;;;;;;5.10;3.50;;;32.60;58.70;;;;;;5048117;28;20026;-69
2022/06/27 10:15:11;;;;;;;4.28;3.10;;;32.60;59.20;;;;;;5044319;28;20036;-68
2022/06/27 10:17:38;;;;;;;3.50;3.00;;;32.60;58.70;;;;;;5048293;28;20047;-68
2022/06/27 10:20:16;;;;;;;4.55;2.83;;;32.70;58.60;;;;;;5055544;28;20025;-68
2022/06/27 10:22:42;;;;;;;3.30;3.00;;;32.70;58.00;;;;;;5053163;28;20086;-68
2022/06/27 10:25:26;;;;;;;3.42;2.78;;;32.70;57.90;;;;;;5055169;28;20025;-68
2022/06/27 10:28:10;;;;;;;3.72;2.80;;;32.80;58.20;;;;;;5052652;28;20036;-68
2022/06/27 10:30:39;;;;;;;3.97;2.92;;;32.80;58.30;;;;;;5055240;28;20029;-69
2022/06/27 10:33:23;;;;;;;8.05;2.80;;;32.90;57.90;;;;;;5054241;28;20021;-68
2022/06/27 10:35:59;;;;;;;3.45;3.00;;;33.00;57.60;;;;;;5051255;28;20047;-67
2022/06/27 10:38:28;;;;;;;5.90;3.17;;;33.00;57.20;;;;;;5053899;28;20033;-67
2022/06/27 10:40:55;;;;;;;5.78;3.20;;;33.10;57.10;;;;;;5052097;28;20036;-68
2022/06/27 10:43:35;;;;;;;3.78;2.47;;;33.10;55.30;;;;;;5067950;28;20025;-68
2022/06/27 10:46:21;;;;;;;3.60;2.72;;;33.20;55.00;;;;;;5047307;28;20560;-68
2022/06/27 10:48:54;;;;;;;3.33;2.88;;;33.10;55.10;;;;;;5053054;28;20044;-68
2022/06/27 10:51:26;;;;;;;7.50;3.55;;;33.20;55.10;;;;;;5042077;28;20492;-69
2022/06/27 10:54:09;;;;;;;3.65;2.72;;;33.20;54.90;;;;;;5050274;28;20048;-70
2022/06/27 10:56:42;;;;;;;6.18;3.58;;;33.30;55.00;;;;;;5047154;28;20078;-68
2022/06/27 10:59:17;;;;;;;5.33;3.20;;;33.30;55.60;;;;;;5071707;28;20029;-70
2022/06/27 11:02:05;;;;;;;5.03;3.25;;;33.30;55.20;;;;;;5059035;28;20503;-69
2022/06/27 11:04:33;;;;;;;8.90;5.45;;;33.30;55.50;;;;;;5034668;28;20063;-69
2022/06/27 11:07:05;;;;;;;3.90;3.42;;;33.40;55.30;;;;;;5052391;28;20033;-69
2022/06/27 11:09:40;;;;;;;3.55;2.65;;;33.40;54.80;;;;;;5047634;28;20075;-69
2022/06/27 11:12:07;;;;;;;3.95;2.75;;;33.50;54.80;;;;;;5050817;28;20131;-70
2022/06/27 11:14:47;;;;;;;4.25;3.47;;;33.50;54.70;;;;;;5044196;28;20064;-71
2022/06/27 11:17:33;;;;;;;5.43;3.55;;;33.60;55.00;;;;;;5051929;28;20376;-69
2022/06/27 11:20:13;;;;;;;5.25;2.90;;;33.60;54.80;;;;;;5052066;28;20095;-68
2022/06/27 11:22:39;;;;;;;4.50;3.42;;;33.70;54.30;;;;;;5043131;28;20052;-68
2022/06/27 11:25:05;;;;;;;4.95;3.10;;;33.70;53.70;;;;;;5053725;28;20084;-68
2022/06/27 11:27:47;;;;;;;4.43;2.97;;;33.80;53.50;;;;;;5050868;28;20024;-68
2022/06/27 11:33:26;;;;;;;3.20;2.90;;;33.90;54.10;;;;;;5048390;28;20048;-68
2022/06/27 11:35:54;;;;;;;4.72;2.88;;;33.90;53.50;;;;;;5052456;28;20681;-68
2022/06/27 11:38:24;;;;;;;6.47;2.80;;;33.80;52.90;;;;;;5051763;28;20589;-69
2022/06/27 11:41:10;;;;;;;8.18;3.13;;;33.90;53.60;;;;;;5039100;28;20033;-68
2022/06/27 11:43:56;;;;;;;5.00;3.10;;;33.80;53.10;;;;;;5048549;28;20075;-68
2022/06/27 11:46:45;;;;;;;4.20;3.25;;;33.80;53.00;;;;;;5050209;28;20453;-69
2022/06/27 11:49:27;;;;;;;3.30;2.60;;;33.80;52.40;;;;;;5050477;28;20039;-69
2022/06/27 11:52:09;;;;;;;4.63;3.38;;;33.90;53.20;;;;;;5050677;28;20380;-67
2022/06/27 11:54:42;;;;;;;3.17;2.75;;;34.00;52.80;;;;;;5053575;28;20059;-68
2022/06/27 11:57:44;;;;;;;3.55;2.95;;;34.10;52.50;;;;;;5057430;28;20476;-68
2022/06/27 12:00:23;;;;;;;3.17;2.55;;;34.10;52.90;;;;;;5021175;28;20084;-68
2022/06/27 12:03:04;;;;;;;5.03;3.03;;;34.20;52.40;;;;;;5044436;28;20436;-68
2022/06/27 12:05:30;;;;;;;3.35;2.60;;;34.20;52.20;;;;;;5047775;28;20040;-68
2022/06/27 12:08:01;;;;;;;4.25;2.80;;;34.30;51.60;;;;;;5043388;28;20050;-68
2022/06/27 12:10:40;;;;;;;5.38;3.22;;;34.30;51.70;;;;;;5052389;28;20047;-69
2022/06/27 12:13:12;;;;;;;6.13;3.25;;;34.30;52.20;;;;;;5051576;28;20481;-68
2022/06/27 12:15:40;;;;;;;6.22;3.10;;;34.40;51.10;;;;;;5050508;28;20472;-68
2022/06/27 12:18:09;;;;;;;4.38;2.92;;;34.50;51.00;;;;;;5047463;28;20484;-69
2022/06/27 12:20:35;;;;;;;3.75;2.92;;;34.50;50.50;;;;;;5052986;28;20040;-68
2022/06/27 12:23:01;;;;;;;4.93;3.22;;;34.60;50.60;;;;;;5049236;28;20025;-68
2022/06/27 12:25:28;;;;;;;4.88;3.17;;;34.60;50.60;;;;;;5051850;28;20035;-68
2022/06/27 12:27:53;;;;;;;3.35;2.53;;;34.70;50.10;;;;;;5049585;28;20128;-68
2022/06/27 12:30:19;;;;;;;7.32;3.20;;;34.80;50.40;;;;;;5051865;28;20108;-68
2022/06/27 12:32:45;;;;;;;3.45;3.00;;;34.80;50.60;;;;;;5049542;28;20020;-69
2022/06/27 12:35:11;;;;;;;3.85;2.80;;;35.00;50.60;;;;;;5051966;28;20433;-69
2022/06/27 12:37:38;;;;;;;3.85;3.17;;;35.00;50.90;;;;;;5050508;28;20032;-68
2022/06/27 12:40:05;;;;;;;3.72;2.97;;;35.20;50.90;;;;;;5051151;28;20376;-69
2022/06/27 12:42:31;;;;;;;4.88;3.10;;;35.20;50.50;;;;;;5049695;28;20053;-69
2022/06/27 12:44:57;;;;;;;4.95;3.10;;;35.30;49.50;;;;;;5050950;28;20017;-68
2022/06/27 12:47:23;;;;;;;5.93;3.33;;;35.40;49.80;;;;;;5049204;28;20036;-68
2022/06/27 12:49:48;;;;;;;3.50;3.05;;;35.50;49.30;;;;;;5050383;28;20063;-69